Time;durP1;ratioP1;P1;durP2;ratioP2;P2;SDS_P1;SDS_P2;PMS_P1;PMS_P2;Temp;Humidity;BMP_temperature;BMP_pressure;BME280_temperature;BME280_humidity;BME280_pressure;Samples;Min_cycle;Max_cycle;Signal;HPM_P1;HPM_P2
2024/04/22 00:01:46;;;;;;;0.10;0.10;;;;;;;5.09;100.00;99267.35;87178;278;136782;-77
2024/04/22 00:03:46;;;;;;;0.60;0.10;;;;;;;5.10;100.00;99279.35;87362;266;25251;-78
2024/04/22 00:05:56;;;;;;;0.30;0.10;;;;;;;5.12;100.00;99281.41;87143;268;137585;-76
2024/04/22 00:07:56;;;;;;;0.00;0.00;;;;;;;5.13;100.00;99280.55;87288;275;22598;-78
2024/04/22 00:09:57;;;;;;;0.10;0.10;;;;;;;5.15;100.00;99275.98;87253;278;136019;-74
2024/04/22 00:11:58;;;;;;;0.20;0.20;;;;;;;5.15;100.00;99280.00;87218;275;22929;-74
2024/04/22 00:13:59;;;;;;;2.50;0.10;;;;;;;5.15;100.00;99283.64;87105;268;137649;-74
2024/04/22 00:16:00;;;;;;;0.10;0.10;;;;;;;5.17;100.00;99283.31;87346;268;23884;-73
2024/04/22 00:18:00;;;;;;;0.00;0.00;;;;;;;5.19;100.00;99287.30;88088;271;136172;-74
2024/04/22 00:20:02;;;;;;;0.50;0.10;;;;;;;5.19;100.00;99285.98;87919;275;23741;-75
2024/04/22 00:22:02;;;;;;;0.00;0.00;;;;;;;5.20;100.00;99287.48;87578;276;136618;-75
2024/04/22 00:24:06;;;;;;;0.20;0.20;;;;;;;5.20;100.00;99291.05;87615;271;138368;-74
2024/04/22 00:26:06;;;;;;;0.10;0.10;;;;;;;5.21;100.00;99291.92;87372;271;26201;-76
2024/04/22 00:28:07;;;;;;;0.10;0.10;;;;;;;5.22;100.00;99294.30;87202;268;138318;-74
2024/04/22 00:30:08;;;;;;;0.10;0.10;;;;;;;5.23;100.00;99292.23;87286;270;22868;-76
2024/04/22 00:32:09;;;;;;;0.40;0.20;;;;;;;5.25;100.00;99298.73;87184;268;136354;-76
2024/04/22 00:34:09;;;;;;;0.10;0.10;;;;;;;5.27;100.00;99297.38;87225;271;22577;-73
2024/04/22 00:36:10;;;;;;;0.10;0.10;;;;;;;5.30;100.00;99302.27;87128;279;136527;-76
2024/04/22 00:38:11;;;;;;;0.10;0.10;;;;;;;5.31;100.00;99305.42;87254;268;23940;-77
2024/04/22 00:40:11;;;;;;;0.00;0.00;;;;;;;5.33;100.00;99317.91;87099;268;137120;-78
2024/04/22 00:42:12;;;;;;;0.60;0.30;;;;;;;5.32;100.00;99320.27;87242;271;22632;-73
2024/04/22 00:44:13;;;;;;;0.00;0.00;;;;;;;5.33;100.00;99320.02;87099;279;136829;-74
2024/04/22 00:46:14;;;;;;;0.10;0.10;;;;;;;5.33;100.00;99323.45;87150;271;25348;-75
2024/04/22 00:48:17;;;;;;;0.00;0.00;;;;;;;5.35;100.00;99326.65;87197;278;136768;-75
2024/04/22 00:50:18;;;;;;;0.00;0.00;;;;;;;5.36;100.00;99332.19;87246;279;22557;-76
2024/04/22 00:52:19;;;;;;;0.10;0.00;;;;;;;5.36;100.00;99331.02;87174;268;137663;-75
2024/04/22 00:54:20;;;;;;;0.00;0.00;;;;;;;5.37;100.00;99338.15;87266;278;24017;-74
2024/04/22 00:56:22;;;;;;;0.10;0.00;;;;;;;5.37;100.00;99340.30;87174;274;136738;-75
2024/04/22 00:58:24;;;;;;;0.10;0.00;;;;;;;5.35;100.00;99349.50;87249;276;22530;-75
2024/04/22 01:00:25;;;;;;;0.90;0.00;;;;;;;5.32;100.00;99347.17;87294;275;136727;-72
2024/04/22 01:02:28;;;;;;;0.00;0.00;;;;;;;5.34;100.00;99343.30;87238;275;25108;-76
2024/04/22 01:04:33;;;;;;;0.00;0.00;;;;;;;5.36;100.00;99347.71;87524;279;136476;-75
2024/04/22 01:06:34;;;;;;;0.00;0.00;;;;;;;5.37;100.00;99353.52;87328;274;23998;-75
2024/04/22 01:08:34;;;;;;;0.00;0.00;;;;;;;5.38;100.00;99353.25;87214;270;137322;-74
2024/04/22 01:10:36;;;;;;;0.00;0.00;;;;;;;5.39;100.00;99350.88;87288;276;23990;-76
2024/04/22 01:12:37;;;;;;;0.00;0.00;;;;;;;5.41;100.00;99357.12;87424;270;136172;-76
2024/04/22 01:14:37;;;;;;;0.00;0.00;;;;;;;5.43;100.00;99357.73;86799;267;952418;-76
2024/04/22 01:16:38;;;;;;;1.90;0.00;;;;;;;5.46;100.00;99363.55;87406;275;136431;-74
2024/04/22 01:18:39;;;;;;;0.00;0.00;;;;;;;5.47;100.00;99365.51;87361;271;22550;-74
2024/04/22 01:20:39;;;;;;;0.00;0.00;;;;;;;5.48;100.00;99365.11;87469;276;136196;-75
2024/04/22 01:22:40;;;;;;;0.00;0.00;;;;;;;5.49;100.00;99376.23;88084;271;22632;-70
2024/04/22 01:24:43;;;;;;;0.40;0.00;;;;;;;5.51;100.00;99377.16;89328;268;137026;-72
2024/04/22 01:26:48;;;;;;;0.00;0.00;;;;;;;5.51;100.00;99380.45;88916;266;22544;-75
2024/04/22 01:28:49;;;;;;;0.00;0.00;;;;;;;5.52;100.00;99380.08;88763;270;135839;-75
2024/04/22 01:30:50;;;;;;;0.00;0.00;;;;;;;5.55;100.00;99383.62;88235;267;22694;-74
2024/04/22 01:32:51;;;;;;;1.50;0.00;;;;;;;5.58;100.00;99391.27;87597;270;136774;-75
2024/04/22 01:34:56;;;;;;;0.00;0.00;;;;;;;5.59;100.00;99400.63;87726;268;23959;-74
2024/04/22 01:36:57;;;;;;;0.00;0.00;;;;;;;5.61;100.00;99399.46;87380;270;135988;-75
2024/04/22 01:38:58;;;;;;;0.00;0.00;;;;;;;5.64;100.00;99399.21;87497;272;22562;-75
2024/04/22 01:40:59;;;;;;;0.00;0.00;;;;;;;5.65;100.00;99406.76;87076;268;139202;-77
2024/04/22 01:42:59;;;;;;;1.30;0.00;;;;;;;5.64;100.00;99403.16;87256;271;25220;-75
2024/04/22 01:45:00;;;;;;;0.10;0.00;;;;;;;5.64;100.00;99400.96;87112;271;136533;-74
2024/04/22 01:47:00;;;;;;;0.10;0.00;;;;;;;5.64;100.00;99407.42;87137;271;24935;-76
2024/04/22 01:49:01;;;;;;;0.00;0.00;;;;;;;5.65;100.00;99414.55;87042;272;136068;-74
2024/04/22 01:51:02;;;;;;;1.70;0.10;;;;;;;5.64;100.00;99422.45;87407;266;22972;-75
2024/04/22 01:53:03;;;;;;;0.00;0.00;;;;;;;5.63;100.00;99416.05;87202;275;136649;-75
2024/04/22 01:55:06;;;;;;;0.20;0.00;;;;;;;5.62;100.00;99424.80;87331;274;22575;-74
2024/04/22 01:57:07;;;;;;;0.70;0.10;;;;;;;5.61;100.00;99430.15;87265;272;139224;-73
2024/04/22 01:59:07;;;;;;;0.00;0.00;;;;;;;5.61;100.00;99439.19;87205;272;22554;-75
2024/04/22 02:01:08;;;;;;;0.60;0.10;;;;;;;5.61;100.00;99437.40;87098;268;136662;-74
2024/04/22 02:03:09;;;;;;;0.80;0.00;;;;;;;5.62;100.00;99443.92;87347;271;24036;-76
2024/04/22 02:05:09;;;;;;;0.00;0.00;;;;;;;5.62;100.00;99450.64;87204;275;136687;-76
2024/04/22 02:07:10;;;;;;;0.10;0.10;;;;;;;5.64;100.00;99448.01;87231;279;22831;-73
2024/04/22 02:09:11;;;;;;;0.10;0.10;;;;;;;5.65;100.00;99451.08;87122;271;136118;-72
2024/04/22 02:11:12;;;;;;;0.20;0.10;;;;;;;5.66;100.00;99460.41;87141;270;24123;-75
2024/04/22 02:13:12;;;;;;;0.00;0.00;;;;;;;5.69;100.00;99461.52;87140;271;136732;-71
2024/04/22 02:15:13;;;;;;;0.10;0.10;;;;;;;5.71;100.00;99467.52;87192;271;24545;-74
2024/04/22 02:17:15;;;;;;;0.00;0.00;;;;;;;5.72;100.00;99475.66;87048;281;137607;-74
2024/04/22 02:19:16;;;;;;;0.70;0.00;;;;;;;5.73;100.00;99476.31;87264;276;25252;-73
2024/04/22 02:21:16;;;;;;;0.50;0.00;;;;;;;5.74;100.00;99484.99;87073;279;136549;-76
2024/04/22 02:23:17;;;;;;;0.00;0.00;;;;;;;5.75;100.00;99492.59;87372;271;25188;-75
2024/04/22 02:25:18;;;;;;;1.70;0.30;;;;;;;5.76;100.00;99494.38;87201;272;136488;-76
2024/04/22 02:27:18;;;;;;;0.00;0.00;;;;;;;5.76;100.00;99498.05;87206;271;22544;-75
2024/04/22 02:29:19;;;;;;;0.00;0.00;;;;;;;5.76;100.00;99500.36;87260;278;136845;-75
2024/04/22 02:31:20;;;;;;;0.00;0.00;;;;;;;5.77;100.00;99502.95;87233;276;22546;-76
2024/04/22 02:33:21;;;;;;;0.10;0.00;;;;;;;5.76;100.00;99501.95;87127;272;136542;-75
2024/04/22 02:35:21;;;;;;;0.00;0.00;;;;;;;5.76;100.00;99503.55;87176;279;22508;-76
2024/04/22 02:37:22;;;;;;;0.10;0.00;;;;;;;5.78;100.00;99509.52;86998;271;136900;-75
2024/04/22 02:39:23;;;;;;;0.10;0.00;;;;;;;5.77;100.00;99513.85;87325;271;22603;-74
2024/04/22 02:41:23;;;;;;;0.20;0.10;;;;;;;5.77;100.00;99519.84;87213;270;136394;-76
2024/04/22 02:43:24;;;;;;;0.00;0.00;;;;;;;5.79;100.00;99520.51;87215;268;25182;-74
2024/04/22 02:45:25;;;;;;;0.10;0.00;;;;;;;5.81;100.00;99515.34;86996;271;136555;-74
2024/04/22 02:47:26;;;;;;;0.10;0.00;;;;;;;5.82;100.00;99518.03;87354;278;22565;-74
2024/04/22 02:49:30;;;;;;;0.00;0.00;;;;;;;5.84;100.00;99519.02;87260;275;136364;-76
2024/04/22 02:51:31;;;;;;;0.50;0.00;;;;;;;5.87;100.00;99515.75;87171;272;22560;-78
2024/04/22 02:53:31;;;;;;;0.00;0.00;;;;;;;5.91;100.00;99519.16;87115;270;136773;-75
2024/04/22 02:55:32;;;;;;;0.40;0.00;;;;;;;5.92;100.00;99526.59;87263;271;22641;-76
2024/04/22 02:57:33;;;;;;;0.00;0.00;;;;;;;5.93;100.00;99531.73;87194;270;136545;-77
2024/04/22 02:59:33;;;;;;;0.00;0.00;;;;;;;5.95;100.00;99535.80;87223;271;24052;-76
2024/04/22 03:01:36;;;;;;;0.00;0.00;;;;;;;5.95;100.00;99539.78;87261;279;136719;-75
2024/04/22 03:03:37;;;;;;;0.00;0.00;;;;;;;5.97;100.00;99537.70;87419;270;22559;-77
2024/04/22 03:05:37;;;;;;;0.10;0.10;;;;;;;5.97;100.00;99543.98;88022;279;136036;-76
2024/04/22 03:07:38;;;;;;;0.00;0.00;;;;;;;5.98;100.00;99551.47;88406;268;22557;-75
2024/04/22 03:09:42;;;;;;;0.10;0.10;;;;;;;5.99;100.00;99548.15;88814;266;137311;-74
2024/04/22 03:11:43;;;;;;;0.10;0.10;;;;;;;6.00;100.00;99556.14;89140;266;22556;-74
2024/04/22 03:13:44;;;;;;;0.00;0.00;;;;;;;6.01;100.00;99554.48;88475;269;136185;-74
2024/04/22 03:15:45;;;;;;;0.00;0.00;;;;;;;6.01;100.00;99561.54;88458;274;25313;-75
2024/04/22 03:17:46;;;;;;;0.00;0.00;;;;;;;6.04;100.00;99567.03;87411;279;136547;-76
2024/04/22 03:19:50;;;;;;;0.00;0.00;;;;;;;6.06;100.00;99575.98;87737;267;23738;-76
2024/04/22 03:21:50;;;;;;;0.20;0.10;;;;;;;6.06;100.00;99582.27;87332;268;137345;-74
2024/04/22 03:23:51;;;;;;;0.30;0.20;;;;;;;6.08;100.00;99584.08;87255;280;25242;-75
2024/04/22 03:25:51;;;;;;;0.10;0.10;;;;;;;6.09;100.00;99590.27;87306;271;136713;-75
2024/04/22 03:27:52;;;;;;;0.10;0.00;;;;;;;6.09;100.00;99594.64;87351;270;22555;-75
2024/04/22 03:29:53;;;;;;;0.00;0.00;;;;;;;6.10;100.00;99596.52;87125;271;137057;-76
2024/04/22 03:31:54;;;;;;;1.00;0.10;;;;;;;6.11;100.00;99599.95;87231;271;22564;-74
2024/04/22 03:33:54;;;;;;;0.80;0.00;;;;;;;6.13;100.00;99601.13;87108;276;136392;-74
2024/04/22 03:36:02;;;;;;;0.50;0.10;;;;;;;6.14;100.00;99603.46;87198;268;25797;-75
2024/04/22 03:38:03;;;;;;;0.10;0.10;;;;;;;6.16;100.00;99606.39;87201;272;23876;-73
2024/04/22 03:40:04;;;;;;;0.10;0.10;;;;;;;6.16;100.00;99606.20;87090;271;136339;-74
2024/04/22 03:42:05;;;;;;;1.50;0.00;;;;;;;6.17;100.00;99606.48;87269;279;23730;-73
2024/04/22 03:44:05;;;;;;;0.00;0.00;;;;;;;6.18;100.00;99610.71;87171;271;137085;-76
2024/04/22 03:50:45;;;;;;;0.10;0.00;;;;;;;6.20;100.00;99623.89;87239;272;24036;-76
2024/04/22 03:52:46;;;;;;;0.10;0.10;;;;;;;6.21;100.00;99634.07;87141;270;136998;-74
2024/04/22 03:54:46;;;;;;;0.20;0.20;;;;;;;6.21;100.00;99627.73;87183;279;24039;-77
2024/04/22 03:56:47;;;;;;;0.10;0.10;;;;;;;6.19;100.00;99635.98;87030;270;137732;-72
2024/04/22 03:58:48;;;;;;;1.90;0.00;;;;;;;6.21;100.00;99639.70;87276;272;24027;-74
2024/04/22 04:00:49;;;;;;;0.10;0.00;;;;;;;6.22;100.00;99635.32;87190;270;136371;-76
2024/04/22 04:02:49;;;;;;;0.00;0.00;;;;;;;6.23;100.00;99639.45;87249;268;22670;-77
2024/04/22 04:04:50;;;;;;;0.50;0.10;;;;;;;6.26;100.00;99645.81;87110;272;136596;-76
2024/04/22 04:06:51;;;;;;;0.20;0.10;;;;;;;6.29;100.00;99643.91;87234;272;22558;-77
2024/04/22 04:08:51;;;;;;;0.60;0.00;;;;;;;6.28;100.00;99648.39;87180;279;138232;-76
2024/04/22 04:10:55;;;;;;;1.10;0.10;;;;;;;6.30;100.00;99646.62;87345;267;22652;-76
2024/04/22 04:12:56;;;;;;;0.20;0.10;;;;;;;6.30;100.00;99646.05;87308;278;137654;-76
2024/04/22 04:14:57;;;;;;;0.20;0.10;;;;;;;6.32;100.00;99649.73;87396;271;22736;-78
2024/04/22 04:16:57;;;;;;;0.10;0.10;;;;;;;6.34;100.00;99649.29;87285;272;136515;-77
2024/04/22 04:18:59;;;;;;;0.20;0.00;;;;;;;6.36;100.00;99641.34;87335;272;22638;-77
2024/04/22 04:20:59;;;;;;;0.10;0.10;;;;;;;6.38;100.00;99653.96;87479;268;136783;-77
2024/04/22 04:23:00;;;;;;;0.10;0.10;;;;;;;6.40;100.00;99662.92;87211;273;22579;-79
2024/04/22 04:25:01;;;;;;;0.90;0.10;;;;;;;6.42;100.00;99673.02;87156;271;136899;-71
2024/04/22 04:27:02;;;;;;;0.30;0.00;;;;;;;6.45;100.00;99677.02;87465;265;23875;-83
2024/04/22 04:29:02;;;;;;;0.10;0.10;;;;;;;6.47;100.00;99675.54;87222;280;136373;-88
2024/04/22 04:31:03;;;;;;;0.10;0.10;;;;;;;6.50;100.00;99684.84;87430;263;24011;-87
2024/04/22 04:33:04;;;;;;;0.00;0.00;;;;;;;6.53;100.00;99692.13;87396;266;136765;-85
2024/04/22 04:35:05;;;;;;;0.40;0.40;;;;;;;6.54;100.00;99697.66;87887;270;23614;-82
2024/04/22 04:37:05;;;;;;;0.40;0.10;;;;;;;6.54;100.00;99698.84;88248;264;136682;-84
2024/04/22 04:39:07;;;;;;;0.40;0.10;;;;;;;6.57;100.00;99704.21;87926;279;22560;-74
2024/04/22 04:41:08;;;;;;;0.90;0.10;;;;;;;6.60;100.00;99709.33;87107;280;136511;-74
2024/04/22 04:43:09;;;;;;;1.40;0.20;;;;;;;6.61;100.00;99712.52;87890;276;22556;-87
2024/04/22 04:45:11;;;;;;;0.20;0.10;;;;;;;6.65;100.00;99716.05;88027;276;136777;-85
2024/04/22 04:47:11;;;;;;;0.30;0.10;;;;;;;6.67;100.00;99724.36;88250;272;22685;-79
2024/04/22 04:49:12;;;;;;;0.00;0.00;;;;;;;6.71;100.00;99721.45;87530;268;136397;-80
2024/04/22 04:51:13;;;;;;;0.40;0.40;;;;;;;6.74;100.00;99723.55;87426;279;22638;-81
2024/04/22 04:53:15;;;;;;;0.90;0.10;;;;;;;6.79;100.00;99720.48;87099;270;137166;-75
2024/04/22 04:55:15;;;;;;;0.60;0.10;;;;;;;6.83;100.00;99728.31;87287;272;22955;-72
2024/04/22 04:57:16;;;;;;;0.00;0.00;;;;;;;6.86;100.00;99729.96;87072;268;136254;-74
2024/04/22 04:59:17;;;;;;;0.60;0.30;;;;;;;6.89;100.00;99730.31;87030;272;25198;-71
2024/04/22 05:01:17;;;;;;;0.00;0.00;;;;;;;6.89;100.00;99734.02;87056;271;136386;-75
2024/04/22 05:03:19;;;;;;;0.10;0.10;;;;;;;6.91;100.00;99729.52;87118;280;24088;-72
2024/04/22 05:05:19;;;;;;;0.30;0.10;;;;;;;6.95;100.00;99735.08;87082;270;136569;-74
2024/04/22 05:07:20;;;;;;;0.80;0.10;;;;;;;6.99;100.00;99735.02;87020;269;22571;-77
2024/04/22 05:09:21;;;;;;;0.30;0.10;;;;;;;7.05;100.00;99737.31;87069;271;136399;-76
2024/04/22 05:11:23;;;;;;;2.00;0.20;;;;;;;7.12;100.00;99744.77;87047;273;23466;-75
2024/04/22 05:13:24;;;;;;;0.30;0.10;;;;;;;7.19;100.00;99750.33;89768;263;137761;-74
2024/04/22 05:17:06;;;;;;;0.30;0.10;;;;;;;7.16;100.00;99749.08;84899;296;602947;-72
2024/04/22 05:19:06;;;;;;;0.10;0.10;;;;;;;7.19;100.00;99752.05;85916;292;22635;-72
2024/04/22 05:21:07;;;;;;;0.20;0.10;;;;;;;7.22;100.00;99757.02;86498;285;135671;-74
2024/04/22 05:23:08;;;;;;;1.60;0.30;;;;;;;7.25;100.00;99763.75;86745;278;22561;-74
2024/04/22 05:25:09;;;;;;;0.40;0.20;;;;;;;7.26;100.00;99770.02;86780;268;135876;-71
2024/04/22 05:27:09;;;;;;;0.20;0.20;;;;;;;7.26;100.00;99771.04;86921;284;25102;-73
2024/04/22 05:29:10;;;;;;;0.30;0.30;;;;;;;7.26;100.00;99777.48;86694;285;137012;-75
2024/04/22 05:31:11;;;;;;;1.60;0.20;;;;;;;7.26;100.00;99775.16;86561;282;841086;-73
2024/04/22 05:37:51;;;;;;;0.30;0.10;;;;;;;7.18;100.00;99793.46;87084;281;136096;-73
2024/04/22 05:39:51;;;;;;;0.90;0.50;;;;;;;7.18;100.00;99793.75;87219;281;23965;-75
2024/04/22 05:41:52;;;;;;;0.20;0.20;;;;;;;7.18;100.00;99801.45;86871;272;136120;-74
2024/04/22 05:43:53;;;;;;;1.10;0.20;;;;;;;7.20;100.00;99804.88;86961;279;25131;-73
2024/04/22 05:45:54;;;;;;;0.20;0.20;;;;;;;7.22;100.00;99807.19;86816;276;136106;-73
2024/04/22 05:47:54;;;;;;;1.10;0.20;;;;;;;7.25;100.00;99814.69;86962;275;22604;-72
2024/04/22 05:49:55;;;;;;;0.20;0.10;;;;;;;7.26;100.00;99814.70;87391;274;135802;-73
2024/04/22 05:51:56;;;;;;;0.40;0.20;;;;;;;7.27;100.00;99824.48;87208;269;22576;-74
2024/04/22 05:53:56;;;;;;;0.50;0.30;;;;;;;7.28;100.00;99830.52;86830;276;136450;-74
2024/04/22 05:55:57;;;;;;;0.50;0.40;;;;;;;7.31;100.00;99836.11;87042;274;23672;-73
2024/04/22 05:57:58;;;;;;;0.50;0.30;;;;;;;7.35;100.00;99844.91;86958;274;136712;-73
2024/04/22 05:59:58;;;;;;;0.60;0.40;;;;;;;7.38;100.00;99847.77;87096;274;24167;-73
2024/04/22 06:01:59;;;;;;;2.10;0.30;;;;;;;7.42;100.00;99842.21;86969;281;136473;-72
2024/04/22 06:04:02;;;;;;;1.00;0.60;;;;;;;7.43;100.00;99854.23;87058;278;25211;-72
2024/04/22 06:06:03;;;;;;;0.30;0.30;;;;;;;7.46;100.00;99857.85;87062;274;22562;-73
2024/04/22 06:08:04;;;;;;;0.40;0.30;;;;;;;7.49;100.00;99865.95;86839;282;136554;-70
2024/04/22 06:10:05;;;;;;;0.70;0.40;;;;;;;7.54;100.00;99875.95;86984;274;22554;-72
2024/04/22 06:12:06;;;;;;;1.30;0.50;;;;;;;7.58;100.00;99882.50;87108;271;136644;-73
2024/04/22 06:14:08;;;;;;;1.70;0.40;;;;;;;7.63;100.00;99888.92;87293;275;22563;-72
2024/04/22 06:16:08;;;;;;;0.60;0.60;;;;;;;7.66;100.00;99893.51;87234;270;136581;-76
2024/04/22 06:18:09;;;;;;;1.00;0.60;;;;;;;7.70;100.00;99896.80;87429;279;25370;-75
2024/04/22 06:20:12;;;;;;;0.50;0.50;;;;;;;7.74;100.00;99900.36;87208;271;137838;-72
2024/04/22 06:22:13;;;;;;;3.10;1.40;;;;;;;7.80;100.00;99904.58;87311;272;25212;-74
2024/04/22 06:24:14;;;;;;;0.60;0.50;;;;;;;7.84;100.00;99908.15;87327;280;136182;-71
2024/04/22 06:26:14;;;;;;;0.90;0.60;;;;;;;7.88;100.00;99921.57;87553;270;22584;-72
2024/04/22 06:28:15;;;;;;;1.50;0.60;;;;;;;7.91;100.00;99924.02;87330;279;136574;-72
2024/04/22 06:30:16;;;;;;;1.00;0.80;;;;;;;7.90;100.00;99926.77;87459;278;22576;-75
2024/04/22 06:32:17;;;;;;;2.80;1.00;;;;;;;7.91;100.00;99936.55;87130;271;137886;-73
2024/04/22 06:34:17;;;;;;;2.70;2.00;;;;;;;7.92;100.00;99941.89;87136;272;22622;-72
2024/04/22 06:36:18;;;;;;;4.30;3.50;;;;;;;7.97;100.00;99947.30;87075;273;136616;-73
2024/04/22 06:38:19;;;;;;;6.80;1.60;;;;;;;8.02;100.00;99956.48;87196;280;24010;-72
2024/04/22 06:40:21;;;;;;;1.60;1.10;;;;;;;8.06;100.00;99961.81;87146;279;136387;-71
2024/04/22 06:42:22;;;;;;;1.30;1.20;;;;;;;8.11;100.00;99970.63;87213;271;22571;-70
2024/04/22 06:44:22;;;;;;;0.80;0.80;;;;;;;8.13;100.00;99980.69;87048;276;136308;-73
2024/04/22 06:46:24;;;;;;;2.60;0.60;;;;;;;8.15;100.00;99988.08;87148;273;22566;-72
2024/04/22 06:48:24;;;;;;;1.30;0.90;;;;;;;8.18;100.00;99991.20;87113;268;138489;-74
2024/04/22 06:50:25;;;;;;;1.10;1.00;;;;;;;8.22;100.00;99996.11;87212;268;22567;-75
2024/04/22 06:52:26;;;;;;;1.10;0.80;;;;;;;8.24;100.00;99994.75;87163;280;137516;-72
2024/04/22 06:54:27;;;;;;;0.80;0.80;;;;;;;8.26;100.00;100001.84;87266;266;23780;-72
2024/04/22 06:56:28;;;;;;;1.30;1.20;;;;;;;8.24;100.00;100013.67;87196;278;136355;-73
2024/04/22 06:58:29;;;;;;;2.10;0.50;;;;;;;8.22;100.00;100016.94;87185;277;23490;-71
2024/04/22 07:00:30;;;;;;;5.50;0.80;;;;;;;8.24;100.00;100019.55;87104;279;136225;-74
2024/04/22 07:02:32;;;;;;;3.60;0.90;;;;;;;8.29;100.00;100028.85;87718;272;22547;-71
2024/04/22 07:04:32;;;;;;;1.40;0.80;;;;;;;8.31;100.00;100033.55;87099;273;136503;-72
2024/04/22 07:06:33;;;;;;;4.10;0.90;;;;;;;8.32;100.00;100032.17;87374;274;24075;-75
2024/04/22 07:08:34;;;;;;;1.10;0.70;;;;;;;8.34;100.00;100033.20;87496;270;136449;-71
2024/04/22 07:10:35;;;;;;;2.10;0.50;;;;;;;8.34;100.00;100041.73;87586;267;22659;-73
2024/04/22 07:12:36;;;;;;;0.40;0.40;;;;;;;8.31;100.00;100042.91;88800;264;136827;-72
2024/04/22 07:14:37;;;;;;;1.00;0.40;;;;;;;8.27;100.00;100035.09;89235;279;22552;-69
2024/04/22 07:16:40;;;;;;;0.90;0.30;;;;;;;8.24;100.00;100043.25;88891;268;136067;-72
2024/04/22 07:18:41;;;;;;;0.40;0.30;;;;;;;8.24;100.00;100059.38;89016;274;22541;-72
2024/04/22 07:20:41;;;;;;;0.50;0.30;;;;;;;8.26;100.00;100063.77;88041;269;136000;-71
2024/04/22 07:22:43;;;;;;;0.60;0.30;;;;;;;8.29;100.00;100070.86;87423;271;25174;-74
2024/04/22 07:24:47;;;;;;;1.00;0.20;;;;;;;8.32;100.00;100076.66;87424;268;135923;-73
2024/04/22 07:26:47;;;;;;;1.20;0.80;;;;;;;8.34;100.00;100077.11;87366;279;22565;-74
2024/04/22 07:28:50;;;;;;;2.20;0.50;;;;;;;8.38;100.00;100086.58;87219;275;136568;-72
2024/04/22 07:30:52;;;;;;;0.90;0.40;;;;;;;8.41;100.00;100083.52;87395;276;22640;-72
2024/04/22 07:32:54;;;;;;;1.30;0.60;;;;;;;8.43;100.00;100098.40;87300;271;138483;-71
2024/04/22 07:34:56;;;;;;;0.60;0.60;;;;;;;8.46;100.00;100090.65;87620;278;24004;-73
2024/04/22 07:37:48;;;;;;;1.10;0.60;;;;;;;8.48;100.00;100095.09;87443;271;136182;-73
2024/04/22 07:40:02;;;;;;;2.90;0.60;;;;;;;8.51;100.00;100107.98;87021;281;27216;-74
2024/04/22 07:42:04;;;;;;;1.00;0.60;;;;;;;8.55;100.00;100111.92;87506;268;25209;-73
2024/04/22 07:44:05;;;;;;;1.00;0.80;;;;;;;8.58;100.00;100111.92;87135;269;136864;-75
2024/04/22 07:46:06;;;;;;;1.00;0.60;;;;;;;8.60;100.00;100115.21;87426;275;26169;-73
2024/04/22 07:48:07;;;;;;;0.50;0.50;;;;;;;8.58;100.00;100124.11;87188;279;136155;-73
2024/04/22 07:50:08;;;;;;;4.50;0.80;;;;;;;8.55;100.00;100129.77;87154;280;22654;-73
2024/04/22 07:52:09;;;;;;;0.60;0.30;;;;;;;8.54;100.00;100135.07;87079;277;136147;-73
2024/04/22 07:54:11;;;;;;;0.40;0.40;;;;;;;8.52;100.00;100139.91;87627;274;22570;-73
2024/04/22 07:56:16;;;;;;;0.70;0.60;;;;;;;8.52;100.00;100142.73;87113;272;136690;-74
2024/04/22 07:58:17;;;;;;;0.70;0.50;;;;;;;8.53;100.00;100145.11;87400;276;22661;-74
2024/04/22 08:00:19;;;;;;;2.30;1.40;;;;;;;8.55;100.00;100151.89;87216;280;137342;-76
2024/04/22 08:02:20;;;;;;;4.10;0.50;;;;;;;8.60;100.00;100151.33;87509;273;25288;-72
2024/04/22 08:04:21;;;;;;;2.50;0.50;;;;;;;8.66;100.00;100155.24;87501;276;137052;-74
2024/04/22 08:06:26;;;;;;;0.60;0.50;;;;;;;8.72;100.00;100159.15;87493;274;24833;-74
2024/04/22 08:08:29;;;;;;;2.00;1.00;;;;;;;8.79;100.00;100158.02;87416;273;137010;-76
2024/04/22 08:10:30;;;;;;;0.80;0.70;;;;;;;8.82;100.00;100164.57;87493;270;25233;-73
2024/04/22 08:12:31;;;;;;;0.80;0.80;;;;;;;8.84;100.00;100164.68;87346;272;136899;-79
2024/04/22 08:14:32;;;;;;;1.00;1.00;;;;;;;8.85;100.00;100167.19;87518;280;22563;-77
2024/04/22 08:16:33;;;;;;;1.30;1.20;;;;;;;8.87;100.00;100168.81;87706;270;136664;-74
2024/04/22 08:18:34;;;;;;;0.60;0.60;;;;;;;8.88;100.00;100168.30;87549;269;22572;-74
2024/04/22 08:20:35;;;;;;;2.80;1.10;;;;;;;8.90;100.00;100171.89;87212;272;136847;-75
2024/04/22 08:22:35;;;;;;;4.30;1.00;;;;;;;8.95;100.00;100170.61;87339;271;22559;-76
2024/04/22 08:24:36;;;;;;;1.30;0.80;;;;;;;9.03;100.00;100172.41;87392;273;136406;-77
2024/04/22 08:26:37;;;;;;;0.60;0.60;;;;;;;9.11;100.00;100177.19;87370;274;25104;-76
2024/04/22 08:28:38;;;;;;;1.10;0.80;;;;;;;9.21;100.00;100178.71;87348;269;136558;-74
2024/04/22 08:30:40;;;;;;;4.90;1.00;;;;;;;9.30;100.00;100183.35;87282;273;22571;-75
2024/04/22 08:32:41;;;;;;;3.40;1.10;;;;;;;9.36;100.00;100186.20;87096;272;136581;-76
2024/04/22 08:34:43;;;;;;;1.40;0.70;;;;;;;9.44;100.00;100193.02;87535;280;22588;-78
2024/04/22 08:36:47;;;;;;;2.80;1.00;;;;;;;9.49;100.00;100192.03;87356;270;136680;-78
2024/04/22 08:38:48;;;;;;;1.90;1.00;;;;;;;9.57;100.00;100196.30;87218;271;24000;-74
2024/04/22 08:40:49;;;;;;;1.40;0.90;;;;;;;9.62;100.00;100199.73;87104;269;136824;-75
2024/04/22 08:42:50;;;;;;;2.00;1.40;;;;;;;9.69;100.00;100205.46;87497;274;24093;-77
2024/04/22 08:44:54;;;;;;;1.80;0.60;;;;;;;9.74;100.00;100205.52;87582;280;136481;-78
2024/04/22 08:46:55;;;;;;;0.80;0.60;;;;;;;9.77;100.00;100213.02;87856;272;24916;-77
2024/04/22 08:48:55;;;;;;;0.70;0.60;;;;;;;9.77;100.00;100221.20;87081;272;137020;-77
2024/04/22 08:51:00;;;;;;;1.00;0.40;;;;;;;9.79;100.00;100225.49;87349;276;24382;-75
2024/04/22 08:53:03;;;;;;;0.90;0.80;;;;;;;9.82;100.00;100224.83;87389;273;137365;-79
2024/04/22 08:55:04;;;;;;;0.90;0.40;;;;;;;9.82;100.00;100221.19;87845;268;23965;-76
2024/04/22 08:57:05;;;;;;;2.70;0.50;;;;;;;9.80;100.00;100229.71;87163;270;136665;-75
2024/04/22 08:59:06;;;;;;;1.80;0.80;;;;;;;9.77;100.00;100234.27;87266;271;22550;-74
2024/04/22 09:01:07;;;;;;;1.10;0.70;;;;;;;9.75;100.00;100234.89;87136;271;137244;-75
2024/04/22 09:03:10;;;;;;;0.80;0.80;;;;;;;9.73;100.00;100238.45;87459;279;23937;-75
2024/04/22 09:05:11;;;;;;;1.20;0.70;;;;;;;9.74;100.00;100241.33;87293;272;136934;-76
2024/04/22 09:07:20;;;;;;;0.80;0.80;;;;;;;9.75;100.00;100240.84;87264;271;22853;-75
2024/04/22 09:09:21;;;;;;;2.00;1.10;;;;;;;9.74;100.00;100245.65;87408;280;136633;-75
2024/04/22 09:11:25;;;;;;;2.20;0.90;;;;;;;9.72;100.00;100250.27;87172;276;22740;-77
2024/04/22 09:13:25;;;;;;;2.50;0.90;;;;;;;9.73;100.00;100253.31;87084;267;136934;-75
2024/04/22 09:15:29;;;;;;;4.50;0.80;;;;;;;9.78;100.00;100257.98;87120;268;24039;-71
2024/04/22 09:17:30;;;;;;;1.90;0.90;;;;;;;9.81;100.00;100260.40;87165;273;136756;-75
2024/04/22 09:19:31;;;;;;;2.30;0.90;;;;;;;9.81;100.00;100260.73;87129;279;22723;-76
2024/04/22 09:21:35;;;;;;;0.70;0.30;;;;;;;9.80;100.00;100264.73;87099;277;136855;-78
2024/04/22 09:23:37;;;;;;;1.20;0.60;;;;;;;9.81;100.00;100269.83;87428;280;22576;-76
2024/04/22 09:25:38;;;;;;;1.70;0.90;;;;;;;9.81;100.00;100269.45;87076;278;136479;-75
2024/04/22 09:27:46;;;;;;;0.40;0.30;;;;;;;9.79;100.00;100267.20;87314;270;26319;-75
2024/04/22 09:29:49;;;;;;;1.30;0.70;;;;;;;9.72;100.00;100264.81;87117;279;137029;-75
2024/04/22 09:31:52;;;;;;;0.30;0.30;;;;;;;9.67;100.00;100262.67;87328;271;22617;-73
2024/04/22 09:33:56;;;;;;;2.00;0.60;;;;;;;9.64;100.00;100262.47;87171;271;139859;-75
2024/04/22 09:35:58;;;;;;;0.80;0.20;;;;;;;9.68;100.00;100261.05;87254;273;25041;-74
2024/04/22 09:37:59;;;;;;;0.60;0.30;;;;;;;9.75;100.00;100263.08;87266;271;136731;-74
2024/04/22 09:40:02;;;;;;;0.70;0.50;;;;;;;9.82;100.00;100264.06;87244;271;25339;-75
2024/04/22 09:42:04;;;;;;;0.40;0.30;;;;;;;9.89;100.00;100264.03;87153;271;137307;-74
2024/04/22 09:44:06;;;;;;;1.10;0.20;;;;;;;10.00;100.00;100264.66;87112;268;137377;-74